Time;durP1;ratioP1;P1;durP2;ratioP2;P2;SDS_P1;SDS_P2;PMS_P1;PMS_P2;Temp;Humidity;BMP_temperature;BMP_pressure;BME280_temperature;BME280_humidity;BME280_pressure;Samples;Min_cycle;Max_cycle;Signal;HPM_P1;HPM_P2
2022/07/09 00:05:10;;;;;;;6.00;3.10;;;;;;;14.49;69.10;100087.16;444744;1278;144944;-60
2022/07/09 00:15:21;;;;;;;5.70;2.00;;;;;;;14.47;69.25;100087.66;445465;1278;142967;-60
2022/07/09 00:25:27;;;;;;;6.00;2.70;;;;;;;14.23;69.32;100095.01;445478;1278;142843;-62
2022/07/09 00:35:33;;;;;;;5.60;2.20;;;;;;;13.96;69.85;100093.88;444747;1277;143620;-60
2022/07/09 00:45:39;;;;;;;1.90;1.60;;;;;;;13.74;70.37;100099.80;445531;1278;143526;-63
2022/07/09 00:55:48;;;;;;;2.20;1.90;;;;;;;13.55;70.86;100104.07;445502;1277;142487;-60
2022/07/09 01:05:55;;;;;;;4.50;1.90;;;;;;;13.36;71.43;100101.45;444723;1278;143242;-61
2022/07/09 01:16:01;;;;;;;2.40;1.90;;;;;;;13.38;72.12;100102.73;445574;1277;142833;-61
2022/07/09 01:26:09;;;;;;;2.80;2.00;;;;;;;13.50;72.23;100095.29;444818;1278;142883;-60
2022/07/09 01:36:14;;;;;;;5.30;1.60;;;;;;;13.34;72.23;100083.67;445570;1277;142256;-61
2022/07/09 01:46:20;;;;;;;5.50;2.00;;;;;;;13.08;72.80;100092.55;445560;1278;145776;-61
2022/07/09 01:56:27;;;;;;;2.50;2.20;;;;;;;12.97;73.49;100080.31;444739;1278;142271;-61
2022/07/09 02:06:32;;;;;;;3.00;2.30;;;;;;;12.97;73.90;100065.00;445440;1278;146032;-60
2022/07/09 02:16:38;;;;;;;2.70;1.80;;;;;;;13.08;74.19;100058.86;445515;1277;142784;-61
2022/07/09 02:26:44;;;;;;;4.10;2.20;;;;;;;13.25;74.32;100063.73;444648;1278;144444;-60
2022/07/09 02:36:49;;;;;;;5.10;2.70;;;;;;;13.35;74.35;100055.84;445459;1277;143157;-61
2022/07/09 02:46:55;;;;;;;3.40;1.70;;;;;;;13.44;74.39;100052.40;445425;1278;144246;-60
2022/07/09 02:57:01;;;;;;;2.70;1.90;;;;;;;13.50;74.53;100045.13;444671;1278;143149;-60
2022/07/09 03:07:07;;;;;;;3.30;2.30;;;;;;;13.57;74.43;100041.36;445490;1277;143398;-61
2022/07/09 03:17:13;;;;;;;5.50;2.20;;;;;;;13.65;74.47;100030.21;444636;1278;143075;-60
2022/07/09 03:27:19;;;;;;;6.60;2.10;;;;;;;13.73;74.37;100025.27;445450;1277;145210;-60
2022/07/09 03:37:25;;;;;;;2.50;1.90;;;;;;;14.14;74.30;100028.20;445279;1277;141716;-60
2022/07/09 03:47:30;;;;;;;3.30;2.00;;;;;;;15.14;73.13;100023.36;444668;1277;143327;-61
2022/07/09 03:57:36;;;;;;;4.00;2.70;;;;;;;15.43;71.84;100009.02;445373;1277;143312;-59
2022/07/09 04:07:42;;;;;;;5.80;2.00;;;;;;;16.94;71.94;100003.93;445413;1277;142824;-59
2022/07/09 04:17:47;;;;;;;2.40;1.80;;;;;;;24.11;64.28;99989.84;444595;1275;142997;-60
2022/07/09 04:27:53;;;;;;;2.10;1.30;;;;;;;30.06;53.13;99979.02;445437;1277;141868;-60
2022/07/09 04:37:59;;;;;;;1.10;1.00;;;;;;;34.85;44.49;99972.59;445446;1277;142595;-61
2022/07/09 04:48:04;;;;;;;;;;;;;;;36.40;38.41;99960.52;445532;1277;142311;-60
2022/07/09 04:58:10;;;;;;;1.60;0.80;;;;;;;38.72;34.03;99958.58;445682;1277;127834;-60
2022/07/09 05:08:15;;;;;;;4.10;1.10;;;;;;;39.61;31.02;99965.71;444757;1277;141602;-60
2022/07/09 05:18:21;;;;;;;2.00;0.90;;;;;;;41.30;28.22;99965.17;445561;1277;142146;-61
2022/07/09 05:28:27;;;;;;;1.00;0.90;;;;;;;42.50;25.68;99961.31;445592;1277;142437;-61
2022/07/09 05:38:33;;;;;;;1.40;1.10;;;;;;;43.33;24.06;99954.66;444840;1277;184640;-60
2022/07/09 05:48:39;;;;;;;0.90;0.80;;;;;;;39.60;24.36;99940.66;445567;1277;142070;-60
2022/07/09 05:58:45;;;;;;;2.20;1.10;;;;;;;37.64;25.05;99946.03;445464;1277;141553;-60
2022/07/09 06:08:51;;;;;;;3.20;0.80;;;;;;;30.34;29.24;99941.60;444708;1276;142158;-61
2022/07/09 06:18:57;;;;;;;2.60;1.10;;;;;;;27.37;32.96;99932.92;445558;1277;142718;-61
2022/07/09 06:29:04;;;;;;;2.70;1.20;;;;;;;29.64;33.44;99920.11;445356;1277;141635;-61
2022/07/09 06:49:33;;;;;;;2.00;1.20;;;;;;;37.74;26.79;99906.46;445231;1277;141532;-61
2022/07/09 06:59:39;;;;;;;4.80;1.20;;;;;;;33.87;26.95;99898.77;444580;1277;142490;-60
2022/07/09 07:09:44;;;;;;;2.20;1.20;;;;;;;31.96;29.60;99895.64;445376;1277;141973;-60
2022/07/09 07:19:50;;;;;;;2.40;1.30;;;;;;;32.39;28.62;99882.48;445326;1277;143552;-60
2022/07/09 07:29:56;;;;;;;1.90;1.10;;;;;;;29.03;31.97;99880.55;444728;1277;142610;-61
2022/07/09 07:40:02;;;;;;;2.30;0.80;;;;;;;27.05;33.23;99887.54;445429;1277;141931;-62
2022/07/09 07:50:15;;;;;;;1.90;0.80;;;;;;;26.46;35.11;99885.34;444726;1277;141606;-59
2022/07/09 08:00:22;;;;;;;3.80;1.40;;;;;;;28.41;33.15;99880.54;445456;1277;141935;-61
2022/07/09 08:10:27;;;;;;;3.30;1.00;;;;;;;25.94;35.20;99878.98;445516;1277;140788;-61
2022/07/09 08:20:40;;;;;;;5.50;0.80;;;;;;;26.18;35.92;99869.88;444651;1277;142610;-61
2022/07/09 08:30:46;;;;;;;5.80;1.40;;;;;;;25.26;36.53;99868.29;445595;1277;141678;-61
2022/07/09 08:40:52;;;;;;;2.10;0.90;;;;;;;24.32;37.97;99864.16;445504;1277;141329;-60
2022/07/09 08:51:00;;;;;;;3.40;0.60;;;;;;;23.12;39.17;99869.03;444095;1279;142625;-60
2022/07/09 09:01:06;;;;;;;3.10;1.20;;;;;;;22.36;41.32;99867.89;445344;1277;142420;-62
2022/07/09 09:11:16;;;;;;;3.10;1.10;;;;;;;23.58;40.51;99854.84;444551;1277;142422;-62
2022/07/09 09:21:25;;;;;;;3.10;1.30;;;;;;;23.94;39.51;99846.35;445082;1277;140995;-61
2022/07/09 09:31:32;;;;;;;1.00;0.80;;;;;;;22.50;41.08;99846.69;444995;1278;143084;-60
2022/07/09 09:41:38;;;;;;;1.40;0.80;;;;;;;22.90;41.36;99838.02;444249;1277;142293;-62
2022/07/09 09:51:50;;;;;;;2.20;0.90;;;;;;;23.56;40.27;99821.88;445212;1277;141554;-61
2022/07/09 10:01:56;;;;;;;1.90;1.00;;;;;;;24.27;39.35;99820.70;444844;1277;297741;-59
2022/07/09 10:12:02;;;;;;;2.70;1.50;;;;;;;24.11;38.54;99810.67;443313;1280;142166;-60
2022/07/09 10:22:08;;;;;;;1.40;1.30;;;;;;;24.22;38.88;99791.98;443910;1280;151809;-61
2022/07/09 10:32:26;;;;;;;4.10;1.80;;;;;;;24.17;39.11;99793.96;433060;1278;141822;-60
2022/07/09 10:42:32;;;;;;;1.10;0.70;;;;;;;24.65;38.73;99791.33;431729;1278;146525;-60
2022/07/09 10:52:38;;;;;;;2.50;0.90;;;;;;;24.95;37.83;99789.36;426974;1279;142280;-60
2022/07/09 11:02:55;;;;;;;1.30;0.80;;;;;;;24.91;36.89;99783.64;439477;1278;142493;-58
2022/07/09 11:13:02;;;;;;;2.70;0.80;;;;;;;23.91;37.02;99783.73;440197;1277;143857;-60
2022/07/09 11:23:09;;;;;;;1.50;0.90;;;;;;;23.93;36.70;99781.53;444497;1277;165088;-59
2022/07/09 11:33:15;;;;;;;4.80;0.80;;;;;;;24.30;36.07;99782.31;445422;1276;142416;-60
2022/07/09 11:43:22;;;;;;;1.20;0.60;;;;;;;23.86;35.86;99779.65;445201;1278;141078;-60
2022/07/09 11:53:28;;;;;;;1.20;0.80;;;;;;;23.90;34.91;99773.30;435143;1278;159458;-61
2022/07/09 12:03:34;;;;;;;1.60;0.70;;;;;;;23.56;35.40;99768.08;445364;1277;141859;-60
2022/07/09 12:13:46;;;;;;;1.30;0.90;;;;;;;23.74;35.59;99764.55;438276;1279;142237;-60
2022/07/09 12:23:52;;;;;;;4.70;3.30;;;;;;;23.24;36.23;99768.16;442871;1278;144223;-58
2022/07/09 12:33:58;;;;;;;3.70;1.80;;;;;;;22.97;36.89;99764.48;443184;1278;141701;-59
2022/07/09 12:44:04;;;;;;;3.20;1.40;;;;;;;22.45;37.26;99763.60;444907;1278;145658;-59
2022/07/09 12:54:10;;;;;;;3.10;1.60;;;;;;;21.89;37.71;99761.39;444665;1279;141195;-57
2022/07/09 13:04:16;;;;;;;1.30;0.90;;;;;;;22.39;37.73;99749.32;433608;1279;141068;-58
2022/07/09 13:14:22;;;;;;;1.60;1.00;;;;;;;22.74;37.60;99736.85;426275;1281;142244;-59
2022/07/09 13:24:27;;;;;;;1.50;0.70;;;;;;;23.15;37.36;99717.61;426838;1281;141938;-57
2022/07/09 13:34:33;;;;;;;1.20;0.70;;;;;;;23.08;37.10;99715.63;442080;1278;141925;-59
2022/07/09 13:44:39;;;;;;;1.60;0.80;;;;;;;22.97;37.12;99705.58;437256;1279;142451;-58
2022/07/09 13:54:45;;;;;;;4.80;1.30;;;;;;;22.65;37.10;99698.96;445105;1278;142595;-59
2022/07/09 14:04:51;;;;;;;3.20;0.70;;;;;;;22.53;36.91;99689.02;433060;1279;143128;-58
2022/07/09 14:14:57;;;;;;;3.40;1.90;;;;;;;22.21;37.37;99681.25;430360;1278;68451;-58
2022/07/09 14:25:04;;;;;;;3.40;1.00;;;;;;;21.68;38.38;99675.31;430661;1278;71669;-58
2022/07/09 14:35:10;;;;;;;1.90;1.30;;;;;;;21.17;39.39;99676.34;436777;1277;61398;-60
2022/07/09 14:45:16;;;;;;;3.40;1.40;;;;;;;20.90;40.51;99671.12;431553;1279;61383;-56
2022/07/09 14:55:22;;;;;;;2.30;1.10;;;;;;;20.84;41.02;99662.48;430656;1278;73426;-57
2022/07/09 15:05:28;;;;;;;2.90;1.90;;;;;;;20.73;41.38;99656.77;430544;1278;68489;-55
2022/07/09 15:15:34;;;;;;;2.60;1.40;;;;;;;20.55;41.60;99653.73;430151;1279;71578;-58
2022/07/09 15:25:40;;;;;;;3.60;1.40;;;;;;;20.53;41.97;99650.27;429919;1280;61623;-58
2022/07/09 15:35:46;;;;;;;2.20;1.20;;;;;;;20.80;41.64;99644.98;440214;1279;61394;-57
2022/07/09 15:45:52;;;;;;;1.40;0.90;;;;;;;20.92;41.29;99635.21;429888;1279;73603;-57
2022/07/09 15:55:58;;;;;;;5.00;1.40;;;;;;;20.57;40.77;99628.98;430170;1279;68360;-59
2022/07/09 16:06:04;;;;;;;2.50;1.20;;;;;;;20.39;41.53;99621.00;430212;1279;71663;-56
2022/07/09 16:16:15;;;;;;;2.70;1.10;;;;;;;20.04;42.26;99618.92;429965;1279;61884;-57
2022/07/09 16:26:21;;;;;;;3.20;1.00;;;;;;;19.74;42.71;99620.29;429675;1279;61902;-58
2022/07/09 16:36:27;;;;;;;2.60;1.00;;;;;;;19.71;42.91;99609.81;447354;1279;73708;-58
2022/07/09 16:46:32;;;;;;;2.50;0.90;;;;;;;19.97;42.82;99598.09;447478;1278;68509;-59
2022/07/09 16:56:39;;;;;;;1.50;1.00;;;;;;;19.76;43.14;99585.67;447487;1279;71822;-58
2022/07/09 17:06:45;;;;;;;2.40;0.90;;;;;;;19.55;43.55;99578.20;439119;1279;61674;-57
2022/07/09 17:16:51;;;;;;;3.40;0.90;;;;;;;19.46;43.88;99575.88;447782;1277;59667;-58
2022/07/09 17:26:57;;;;;;;2.60;1.30;;;;;;;19.02;44.60;99571.91;439867;1278;74934;-60
2022/07/09 17:37:03;;;;;;;4.60;1.30;;;;;;;18.94;45.16;99564.55;431570;1279;68491;-57
2022/07/09 17:47:09;;;;;;;2.50;1.70;;;;;;;19.16;45.22;99562.28;431219;1277;70441;-57
2022/07/09 17:57:20;;;;;;;4.20;1.50;;;;;;;19.35;45.24;99563.34;430918;1278;61763;-58
2022/07/09 18:07:26;;;;;;;2.60;1.00;;;;;;;19.63;44.69;99556.05;431497;1279;61399;-58
2022/07/09 18:17:33;;;;;;;3.90;1.50;;;;;;;18.90;45.51;99557.29;431478;1279;73726;-57
2022/07/09 18:27:39;;;;;;;2.80;1.00;;;;;;;18.29;46.56;99546.56;431485;1279;69515;-58
2022/07/09 18:37:44;;;;;;;2.40;1.50;;;;;;;17.72;48.24;99542.08;431605;1280;72872;-59
2022/07/09 18:47:50;;;;;;;1.80;1.30;;;;;;;17.19;49.68;99536.05;432063;1279;61430;-58
2022/07/09 18:57:59;;;;;;;3.60;1.40;;;;;;;16.70;51.48;99536.88;432019;1281;61436;-59
2022/07/09 19:08:03;;;;;;;;;;;;;;;16.34;52.73;99538.50;432090;1281;73504;-59
2022/07/09 19:18:09;;;;;;;7.70;3.30;;;;;;;16.20;53.90;99541.83;431643;1280;68485;-58
2022/07/09 19:28:15;;;;;;;3.70;1.80;;;;;;;16.16;55.00;99578.95;431518;1277;70514;-58
2022/07/09 19:38:21;;;;;;;0.80;0.80;;;;;;;15.61;58.80;99607.27;430376;1278;61418;-60
2022/07/09 19:48:27;;;;;;;1.60;0.90;;;;;;;14.93;61.69;99605.30;430352;1278;61372;-58
2022/07/09 19:58:33;;;;;;;1.90;1.20;;;;;;;14.49;63.28;99586.90;430242;1277;73742;-58
2022/07/09 20:08:40;;;;;;;3.30;1.10;;;;;;;14.32;64.46;99577.19;429767;1277;68228;-60
2022/07/09 20:18:46;;;;;;;2.40;1.20;;;;;;;14.24;65.33;99573.92;430050;1278;71450;-57
2022/07/09 20:28:52;;;;;;;2.20;1.20;;;;;;;14.21;66.43;99567.69;431445;1277;61426;-57
2022/07/09 20:38:58;;;;;;;4.20;1.80;;;;;;;14.21;67.70;99560.08;432431;1277;61745;-57
2022/07/09 20:49:04;;;;;;;1.20;1.10;;;;;;;14.11;68.43;99549.63;430490;1277;74070;-56
2022/07/09 20:59:10;;;;;;;1.40;1.30;;;;;;;13.92;69.04;99554.80;430049;1277;67319;-58
2022/07/09 21:09:15;;;;;;;1.90;1.60;;;;;;;13.78;69.65;99560.61;430394;1277;72787;-58
2022/07/09 21:19:21;;;;;;;1.90;1.30;;;;;;;13.55;70.29;99556.05;434766;1278;62061;-58
2022/07/09 21:29:27;;;;;;;3.80;1.90;;;;;;;13.34;70.81;99552.31;429911;1278;61366;-57
2022/07/09 21:39:33;;;;;;;2.80;1.90;;;;;;;13.08;71.61;99550.08;429757;1278;73540;-57
2022/07/09 21:49:39;;;;;;;2.90;2.40;;;;;;;12.87;72.31;99550.92;430181;1279;68680;-58
2022/07/09 21:59:45;;;;;;;2.70;1.90;;;;;;;12.77;72.87;99552.70;429562;1281;256626;-58
2022/07/09 22:09:51;;;;;;;3.10;2.20;;;;;;;12.79;73.14;99544.70;436910;1279;61626;-59
2022/07/09 22:19:57;;;;;;;2.10;1.80;;;;;;;12.64;73.21;99540.08;429831;1281;61428;-58
2022/07/09 22:30:03;;;;;;;3.50;2.10;;;;;;;12.45;73.62;99536.73;430351;1278;73842;-58
2022/07/09 22:40:11;;;;;;;2.30;2.10;;;;;;;12.42;73.96;99529.40;430027;1279;68520;-61
2022/07/09 22:50:17;;;;;;;2.70;2.40;;;;;;;12.36;73.95;99516.30;432943;1279;72584;-57
2022/07/09 23:00:23;;;;;;;3.50;3.20;;;;;;;12.16;74.17;99509.37;429377;1281;61446;-59
2022/07/09 23:10:29;;;;;;;4.30;3.70;;;;;;;11.97;74.57;99509.43;430028;1279;61812;-57
2022/07/09 23:20:34;;;;;;;4.10;3.70;;;;;;;11.84;75.17;99512.94;430679;1279;74901;-58
2022/07/09 23:30:43;;;;;;;4.60;3.00;;;;;;;11.85;75.19;99496.05;430612;1279;68347;-56
2022/07/09 23:40:49;;;;;;;5.80;3.80;;;;;;;11.82;74.99;99486.95;430818;1279;72535;-57
2022/07/09 23:50:55;;;;;;;4.00;3.60;;;;;;;11.85;75.32;99477.66;430519;1279;61407;-57
